createdAt,value
2022-08-28T00:01:45.328Z,19.80
2022-08-28T00:04:14.019Z,19.81
2022-08-28T00:06:42.607Z,19.82
2022-08-28T00:09:11.328Z,19.82
2022-08-28T00:11:40.433Z,19.83
2022-08-28T00:14:11.429Z,19.84
2022-08-28T00:16:42.193Z,19.79
2022-08-28T00:19:11.389Z,19.81
2022-08-28T00:21:40.023Z,19.82
2022-08-28T00:24:09.068Z,19.84
2022-08-28T00:26:54.833Z,19.83
2022-08-28T00:29:23.433Z,19.84
2022-08-28T00:31:54.047Z,19.83
2022-08-28T00:34:29.661Z,19.83
2022-08-28T00:37:02.281Z,19.82
2022-08-28T00:39:32.285Z,19.83
2022-08-28T00:42:01.114Z,19.83
2022-08-28T00:44:30.494Z,19.82
2022-08-28T00:47:02.029Z,19.82
2022-08-28T00:49:35.918Z,19.83
2022-08-28T00:52:12.173Z,19.83
2022-08-28T00:54:59.415Z,19.80
2022-08-28T00:57:33.686Z,19.81
2022-08-28T01:00:03.485Z,19.78
2022-08-28T01:02:33.718Z,19.78
2022-08-28T01:05:02.338Z,19.78
2022-08-28T01:07:31.883Z,19.77
2022-08-28T01:10:01.172Z,19.78
2022-08-28T01:12:34.080Z,19.75
2022-08-28T01:15:14.087Z,19.74
2022-08-28T01:17:51.528Z,19.69
2022-08-28T01:20:24.624Z,19.72
2022-08-28T01:23:05.707Z,19.71
2022-08-28T01:25:39.620Z,19.71
2022-08-28T01:28:13.024Z,19.74
2022-08-28T01:30:50.548Z,19.72
2022-08-28T01:33:19.721Z,19.73
2022-08-28T01:35:57.632Z,19.72
2022-08-28T01:38:27.810Z,19.74
2022-08-28T01:40:58.486Z,19.73
2022-08-28T01:43:29.758Z,19.70
2022-08-28T01:46:06.146Z,19.69
2022-08-28T01:48:39.044Z,19.65
2022-08-28T01:51:08.958Z,19.64
2022-08-28T01:53:37.784Z,19.64
2022-08-28T01:56:14.095Z,19.66
2022-08-28T01:58:43.463Z,19.67
2022-08-28T02:01:14.209Z,19.65
2022-08-28T02:03:44.964Z,19.63
2022-08-28T02:06:16.753Z,19.61
2022-08-28T02:08:45.689Z,19.52
2022-08-28T02:11:15.903Z,19.52
2022-08-28T02:13:46.054Z,19.53
2022-08-28T02:16:20.272Z,19.52
2022-08-28T02:18:50.156Z,19.50
2022-08-28T02:21:18.672Z,19.48
2022-08-28T02:23:48.427Z,19.46
2022-08-28T02:26:18.634Z,19.46
2022-08-28T02:28:48.520Z,19.43
2022-08-28T02:31:17.275Z,19.48
2022-08-28T02:33:47.532Z,19.48
2022-08-28T02:36:18.128Z,19.49
2022-08-28T02:38:49.086Z,19.49
2022-08-28T02:41:20.737Z,19.52
2022-08-28T02:43:50.136Z,19.51
2022-08-28T02:46:18.798Z,19.48
2022-08-28T02:48:48.122Z,19.49
2022-08-28T02:51:16.733Z,19.49
2022-08-28T02:53:45.287Z,19.45
2022-08-28T02:56:14.181Z,19.46
2022-08-28T02:58:44.285Z,19.42
2022-08-28T03:01:14.173Z,19.37
2022-08-28T03:03:44.046Z,19.38
2022-08-28T03:06:14.083Z,19.36
2022-08-28T03:08:44.524Z,19.40
2022-08-28T03:11:13.817Z,19.42
2022-08-28T03:13:44.610Z,19.42
2022-08-28T03:16:13.809Z,19.37
2022-08-28T03:18:42.464Z,19.40
2022-08-28T03:21:12.469Z,19.40
2022-08-28T03:23:41.500Z,19.41
2022-08-28T03:26:13.785Z,19.41
2022-08-28T03:28:48.491Z,19.42
2022-08-28T03:31:22.240Z,19.40
2022-08-28T03:34:25.593Z,19.42
2022-08-28T03:36:54.403Z,19.41
2022-08-28T03:39:23.116Z,19.40
2022-08-28T03:41:53.864Z,19.40
2022-08-28T03:44:25.388Z,19.38
2022-08-28T03:46:55.937Z,19.39
2022-08-28T03:49:26.846Z,19.35
2022-08-28T03:51:57.724Z,19.29
2022-08-28T03:54:30.650Z,19.29
2022-08-28T03:57:00.375Z,19.31
2022-08-28T03:59:35.463Z,19.30
2022-08-28T04:02:04.655Z,19.31
2022-08-28T04:04:34.815Z,19.34
2022-08-28T04:07:05.446Z,19.32
2022-08-28T04:09:34.773Z,19.33
2022-08-28T04:12:04.832Z,19.34
2022-08-28T04:14:36.283Z,19.31
2022-08-28T04:17:06.841Z,19.31
2022-08-28T04:19:38.330Z,19.31
2022-08-28T04:22:14.716Z,19.30
2022-08-28T04:24:46.150Z,19.30
2022-08-28T04:27:16.656Z,19.27
2022-08-28T04:29:48.264Z,19.29
2022-08-28T04:32:17.726Z,19.29
2022-08-28T04:34:46.868Z,19.26
2022-08-28T04:37:18.226Z,19.23
2022-08-28T04:39:46.818Z,19.20
2022-08-28T04:42:16.278Z,19.13
2022-08-28T04:44:46.889Z,19.16
2022-08-28T04:47:15.450Z,19.18
2022-08-28T04:49:44.355Z,19.21
2022-08-28T04:52:16.051Z,19.20
2022-08-28T04:54:44.873Z,19.19
2022-08-28T04:57:13.492Z,19.22
2022-08-28T04:59:45.073Z,19.22
2022-08-28T05:02:15.148Z,19.21
2022-08-28T05:04:43.796Z,19.21
2022-08-28T05:07:14.663Z,19.22
2022-08-28T05:09:43.628Z,19.23
2022-08-28T05:12:17.163Z,19.23
2022-08-28T05:14:45.902Z,19.23
2022-08-28T05:17:17.516Z,19.20
2022-08-28T05:19:48.146Z,19.19
2022-08-28T05:22:16.872Z,19.21
2022-08-28T05:24:46.059Z,19.22
2022-08-28T05:27:14.628Z,19.20
2022-08-28T05:29:43.151Z,19.20
2022-08-28T05:32:12.691Z,19.20
2022-08-28T05:34:42.594Z,19.16
2022-08-28T05:37:14.510Z,19.18
2022-08-28T05:39:45.634Z,19.18
2022-08-28T05:42:14.503Z,19.20
2022-08-28T05:44:43.645Z,19.22
2022-08-28T05:47:13.076Z,19.25
2022-08-28T05:49:43.740Z,19.27
2022-08-28T05:52:12.237Z,19.31
2022-08-28T05:54:44.638Z,19.32
2022-08-28T05:57:13.073Z,19.31
2022-08-28T05:59:41.584Z,19.29
2022-08-28T06:02:10.590Z,19.32
2022-08-28T06:04:40.569Z,19.34
2022-08-28T06:07:12.159Z,19.31
2022-08-28T06:09:40.711Z,19.32
2022-08-28T06:12:10.547Z,19.33
2022-08-28T06:14:40.677Z,19.35
2022-08-28T06:17:09.767Z,19.38
2022-08-28T06:19:41.544Z,19.39
2022-08-28T06:22:14.828Z,19.42
2022-08-28T06:24:43.743Z,19.42
2022-08-28T06:27:12.248Z,19.44
2022-08-28T06:29:41.823Z,19.46
2022-08-28T06:32:10.544Z,19.46
2022-08-28T06:34:39.432Z,19.47
2022-08-28T06:37:08.331Z,19.50
2022-08-28T06:39:42.000Z,19.48
2022-08-28T06:42:11.593Z,19.50
2022-08-28T06:44:40.406Z,19.52
2022-08-28T06:47:10.402Z,19.52
2022-08-28T06:49:39.627Z,19.53
2022-08-28T06:52:09.377Z,19.53
2022-08-28T06:54:40.776Z,19.54
2022-08-28T06:57:28.206Z,19.57
2022-08-28T06:59:59.107Z,19.63
2022-08-28T07:02:28.293Z,19.64
2022-08-28T07:04:57.094Z,19.64
2022-08-28T07:07:31.558Z,19.67
2022-08-28T07:10:02.446Z,19.66
2022-08-28T07:12:30.942Z,19.66
2022-08-28T07:14:59.684Z,19.69
2022-08-28T07:17:28.193Z,19.71
2022-08-28T07:19:56.681Z,19.70
2022-08-28T07:22:26.575Z,19.69
2022-08-28T07:24:55.768Z,19.72
2022-08-28T07:27:26.336Z,19.76
2022-08-28T07:29:55.555Z,19.81
2022-08-28T07:32:24.206Z,19.85
2022-08-28T07:34:53.006Z,19.83
2022-08-28T07:37:21.536Z,19.85
2022-08-28T07:39:50.268Z,19.89
2022-08-28T07:42:35.552Z,19.94
2022-08-28T07:45:06.947Z,19.99
2022-08-28T07:47:35.838Z,19.99
2022-08-28T07:50:04.447Z,19.97
2022-08-28T07:52:32.890Z,20.03
2022-08-28T07:55:01.463Z,20.06
2022-08-28T07:57:32.089Z,20.04
2022-08-28T08:00:00.666Z,20.09
2022-08-28T08:02:31.137Z,20.14
2022-08-28T08:04:59.634Z,20.16
2022-08-28T08:07:28.820Z,20.18
2022-08-28T08:09:57.830Z,20.20
2022-08-28T08:12:26.468Z,20.22
2022-08-28T08:14:57.980Z,20.25
2022-08-28T08:17:26.481Z,20.31
2022-08-28T08:19:56.398Z,20.32
2022-08-28T08:22:25.274Z,20.40
2022-08-28T08:24:54.513Z,20.49
2022-08-28T08:27:23.700Z,20.56
2022-08-28T08:29:52.223Z,20.59
2022-08-28T08:32:20.699Z,20.66
2022-08-28T08:34:49.444Z,20.70
2022-08-28T08:37:19.435Z,20.72
2022-08-28T08:39:48.047Z,20.80
2022-08-28T08:42:27.141Z,20.85
2022-08-28T08:45:00.264Z,20.92
2022-08-28T08:47:39.476Z,20.96
2022-08-28T08:50:17.181Z,21.00
2022-08-28T08:53:05.578Z,21.00
2022-08-28T08:55:43.525Z,20.96
2022-08-28T08:58:22.454Z,21.00
2022-08-28T09:01:03.160Z,21.00
2022-08-28T09:03:58.554Z,21.05
2022-08-28T09:06:37.893Z,21.12
2022-08-28T09:09:19.757Z,21.18
2022-08-28T09:11:59.128Z,21.25
2022-08-28T09:14:42.831Z,21.30
2022-08-28T09:17:17.707Z,21.36
2022-08-28T09:19:46.315Z,21.40
2022-08-28T09:22:14.981Z,21.43
2022-08-28T09:24:45.289Z,21.43
2022-08-28T09:27:26.543Z,21.44
2022-08-28T09:30:07.302Z,21.44
2022-08-28T09:32:41.545Z,21.50
2022-08-28T09:35:19.036Z,21.47
2022-08-28T09:37:47.538Z,21.54
2022-08-28T09:40:23.509Z,21.56
2022-08-28T09:43:37.421Z,21.60
2022-08-28T09:46:17.679Z,21.68
2022-08-28T09:48:48.729Z,21.78
2022-08-28T09:51:31.471Z,21.86
2022-08-28T09:54:13.038Z,21.91
2022-08-28T09:56:45.450Z,21.95
2022-08-28T09:59:17.486Z,22.05
2022-08-28T10:02:10.516Z,22.10
2022-08-28T10:04:59.059Z,22.09
2022-08-28T10:07:47.177Z,22.08
2022-08-28T10:10:27.964Z,22.06
2022-08-28T10:13:11.141Z,22.11
2022-08-28T10:16:05.066Z,22.15
2022-08-28T10:18:44.027Z,22.20
2022-08-28T10:21:21.928Z,22.29
2022-08-28T10:24:26.724Z,22.33
2022-08-28T10:27:13.717Z,22.39
2022-08-28T10:30:04.381Z,22.41
2022-08-28T10:33:08.480Z,22.42
2022-08-28T10:35:50.834Z,22.42
2022-08-28T10:38:29.694Z,22.43
2022-08-28T10:41:07.016Z,22.47
2022-08-28T10:43:43.303Z,22.54
2022-08-28T10:46:25.282Z,22.58
2022-08-28T10:49:03.073Z,22.65
2022-08-28T10:51:44.297Z,22.72
2022-08-28T10:54:24.398Z,22.75
2022-08-28T10:56:59.771Z,22.82
2022-08-28T10:59:41.914Z,22.80
2022-08-28T11:02:16.550Z,22.86
2022-08-28T11:04:48.020Z,22.89
2022-08-28T11:07:29.328Z,22.93
2022-08-28T11:10:18.664Z,22.99
2022-08-28T11:12:51.481Z,23.01
2022-08-28T11:15:54.498Z,23.07
2022-08-28T11:19:08.076Z,23.14
2022-08-28T11:21:46.730Z,23.21
2022-08-28T11:24:44.210Z,23.27
2022-08-28T11:27:29.727Z,23.37
2022-08-28T11:30:35.600Z,23.48
2022-08-28T11:33:09.340Z,23.54
2022-08-28T11:35:52.036Z,23.57
2022-08-28T11:39:22.956Z,23.63
2022-08-28T11:42:37.981Z,23.63
2022-08-28T11:45:08.138Z,23.72
2022-08-28T11:47:56.482Z,23.75
2022-08-28T11:50:33.612Z,23.76
2022-08-28T11:53:48.140Z,23.78
2022-08-28T11:56:45.833Z,23.79
2022-08-28T12:00:00.905Z,23.84
2022-08-28T12:02:55.295Z,23.86
2022-08-28T12:05:53.660Z,23.90
2022-08-28T12:09:12.605Z,23.86
2022-08-28T12:12:03.540Z,23.86
2022-08-28T12:15:09.101Z,23.88
2022-08-28T12:17:58.514Z,23.88
2022-08-28T12:21:01.129Z,23.89
2022-08-28T12:23:42.370Z,23.87
2022-08-28T12:26:25.154Z,23.88
2022-08-28T12:28:58.602Z,23.95
2022-08-28T12:32:18.981Z,23.90
2022-08-28T12:35:08.737Z,23.98
2022-08-28T12:37:52.624Z,24.06
2022-08-28T12:40:26.092Z,24.06
2022-08-28T12:43:00.296Z,24.01
2022-08-28T12:45:34.670Z,24.00
2022-08-28T12:48:14.208Z,24.01
2022-08-28T12:50:42.968Z,24.00
2022-08-28T12:53:17.439Z,23.98
2022-08-28T12:55:47.892Z,23.99
2022-08-28T12:58:31.325Z,23.98
2022-08-28T13:01:05.238Z,24.02
2022-08-28T13:03:34.754Z,24.10
2022-08-28T13:06:09.524Z,24.20
2022-08-28T13:08:39.192Z,24.27
2022-08-28T13:11:09.168Z,24.36
2022-08-28T13:13:49.263Z,24.39
2022-08-28T13:16:38.231Z,24.40
2022-08-28T13:19:31.999Z,24.50
2022-08-28T13:22:04.034Z,24.52
2022-08-28T13:24:45.737Z,24.64
2022-08-28T13:27:26.171Z,24.77
2022-08-28T13:30:06.436Z,24.84
2022-08-28T13:32:39.077Z,24.84
2022-08-28T13:35:30.047Z,24.78
2022-08-28T13:38:02.363Z,24.78
2022-08-28T13:40:57.516Z,24.86
2022-08-28T13:43:30.060Z,25.30
2022-08-28T13:46:00.075Z,25.59
2022-08-28T13:48:30.116Z,25.66
2022-08-28T13:51:05.130Z,25.68
2022-08-28T13:53:39.155Z,25.59
2022-08-28T13:56:08.361Z,25.38
2022-08-28T13:58:37.063Z,25.29
2022-08-28T14:01:07.445Z,25.22
2022-08-28T14:03:38.580Z,25.21
2022-08-28T14:06:12.499Z,25.22
2022-08-28T14:08:43.506Z,25.29
2022-08-28T14:11:14.128Z,25.36
2022-08-28T14:13:47.461Z,25.43
2022-08-28T14:16:26.372Z,25.47
2022-08-28T14:18:56.389Z,25.50
2022-08-28T14:21:25.393Z,25.53
2022-08-28T14:23:54.179Z,25.62
2022-08-28T14:26:22.826Z,25.65
2022-08-28T14:28:51.490Z,25.65
2022-08-28T14:31:26.339Z,25.64
2022-08-28T14:34:00.557Z,25.69
2022-08-28T14:36:31.882Z,25.76
2022-08-28T14:39:06.169Z,25.77
2022-08-28T14:41:36.193Z,25.77
2022-08-28T14:44:06.415Z,25.74
2022-08-28T14:46:38.713Z,25.73
2022-08-28T14:49:12.668Z,25.69
2022-08-28T14:51:43.777Z,25.71
2022-08-28T14:54:15.077Z,25.79
2022-08-28T14:56:44.937Z,25.94
2022-08-28T14:59:24.236Z,26.03
2022-08-28T15:01:55.327Z,26.05
2022-08-28T15:04:28.195Z,26.22
2022-08-28T15:07:00.685Z,26.29
2022-08-28T15:09:29.490Z,26.34
2022-08-28T15:11:57.993Z,26.44
2022-08-28T15:14:26.503Z,26.57
2022-08-28T15:16:55.147Z,26.68
2022-08-28T15:19:25.518Z,26.77
2022-08-28T15:21:56.491Z,26.88
2022-08-28T15:24:28.530Z,26.94
2022-08-28T15:26:57.759Z,27.00
2022-08-28T15:29:28.077Z,26.97
2022-08-28T15:31:57.239Z,27.04
2022-08-28T15:34:29.415Z,27.08
2022-08-28T15:36:59.590Z,27.10
2022-08-28T15:39:46.672Z,27.15
2022-08-28T15:42:15.781Z,27.16
2022-08-28T15:44:44.388Z,27.19
2022-08-28T15:47:14.930Z,27.17
2022-08-28T15:49:49.608Z,27.16
2022-08-28T15:52:20.034Z,27.19
2022-08-28T15:54:48.990Z,27.25
2022-08-28T15:57:18.043Z,27.21
2022-08-28T15:59:48.885Z,27.00
2022-08-28T16:02:20.725Z,26.98
2022-08-28T16:04:51.589Z,26.92
2022-08-28T16:07:23.517Z,26.92
2022-08-28T16:09:53.233Z,26.86
2022-08-28T16:12:21.862Z,26.74
2022-08-28T16:14:50.726Z,26.67
2022-08-28T16:17:20.011Z,26.57
2022-08-28T16:19:49.965Z,26.54
2022-08-28T16:22:20.502Z,26.49
2022-08-28T16:24:49.059Z,26.42
2022-08-28T16:27:25.819Z,26.37
2022-08-28T16:29:54.375Z,26.27
2022-08-28T16:32:23.947Z,26.21
2022-08-28T16:34:54.403Z,26.21
2022-08-28T16:37:23.236Z,26.21
2022-08-28T16:39:56.098Z,26.14
2022-08-28T16:42:27.668Z,26.06
2022-08-28T16:45:00.116Z,26.02
2022-08-28T16:47:31.727Z,25.89
2022-08-28T16:50:06.217Z,25.82
2022-08-28T16:52:35.251Z,25.77
2022-08-28T16:55:04.047Z,25.71
2022-08-28T16:57:32.569Z,25.69
2022-08-28T17:00:01.499Z,25.64
2022-08-28T17:02:33.576Z,25.57
2022-08-28T17:05:06.974Z,25.52
2022-08-28T17:07:36.114Z,25.47
2022-08-28T17:10:06.426Z,25.35
2022-08-28T17:12:35.155Z,25.28
2022-08-28T17:15:03.715Z,25.25
2022-08-28T17:17:32.175Z,25.19
2022-08-28T17:20:00.824Z,25.06
2022-08-28T17:22:32.040Z,24.93
2022-08-28T17:25:02.891Z,24.93
2022-08-28T17:27:32.339Z,24.91
2022-08-28T17:30:04.881Z,24.84
2022-08-28T17:32:33.911Z,24.86
2022-08-28T17:35:02.875Z,24.75
2022-08-28T17:37:32.905Z,24.74
2022-08-28T17:40:01.413Z,24.72
2022-08-28T17:42:30.021Z,24.66
2022-08-28T17:44:58.558Z,24.63
2022-08-28T17:47:30.656Z,24.54
2022-08-28T17:49:59.852Z,24.43
2022-08-28T17:52:29.542Z,24.40
2022-08-28T17:55:00.122Z,24.36
2022-08-28T17:57:31.387Z,24.31
2022-08-28T18:00:01.951Z,24.24
2022-08-28T18:02:34.002Z,24.22
2022-08-28T18:05:03.539Z,24.08
2022-08-28T18:07:32.488Z,24.08
2022-08-28T18:10:02.552Z,24.04
2022-08-28T18:12:31.197Z,24.02
2022-08-28T18:15:00.011Z,23.99
2022-08-28T18:17:28.767Z,23.86
2022-08-28T18:19:58.006Z,23.85
2022-08-28T18:22:29.684Z,23.78
2022-08-28T18:24:58.935Z,23.74
2022-08-28T18:27:31.557Z,23.58
2022-08-28T18:30:00.468Z,23.56
2022-08-28T18:32:29.160Z,23.55
2022-08-28T18:34:57.717Z,23.45
2022-08-28T18:37:26.691Z,23.41
2022-08-28T18:39:56.660Z,23.38
2022-08-28T18:42:26.416Z,23.32
2022-08-28T18:44:56.933Z,23.24
2022-08-28T18:47:25.383Z,23.13
2022-08-28T18:49:54.029Z,23.08
2022-08-28T18:52:22.637Z,23.08
2022-08-28T18:54:52.290Z,23.02
2022-08-28T18:57:25.641Z,22.93
2022-08-28T18:59:55.765Z,22.87
2022-08-28T19:02:25.737Z,22.83
2022-08-28T19:04:55.209Z,22.69
2022-08-28T19:07:23.756Z,22.71
2022-08-28T19:09:52.368Z,22.69
2022-08-28T19:12:20.847Z,22.63
2022-08-28T19:14:49.414Z,22.62
2022-08-28T19:17:21.138Z,22.52
2022-08-28T19:19:50.683Z,22.47
2022-08-28T19:22:19.728Z,22.44
2022-08-28T19:24:49.167Z,22.41
2022-08-28T19:27:17.980Z,22.33
2022-08-28T19:29:46.652Z,22.28
2022-08-28T19:32:15.602Z,22.22
2022-08-28T19:34:45.474Z,22.21
2022-08-28T19:37:14.615Z,22.19
2022-08-28T19:39:51.043Z,22.16
2022-08-28T19:42:26.741Z,22.07
2022-08-28T19:44:59.690Z,21.95
2022-08-28T19:47:29.307Z,22.01
2022-08-28T19:50:08.395Z,21.96
2022-08-28T19:52:38.221Z,21.94
2022-08-28T19:55:08.635Z,21.84
2022-08-28T19:57:37.801Z,21.86
2022-08-28T20:00:08.043Z,21.83
2022-08-28T20:02:37.688Z,21.80
2022-08-28T20:05:09.851Z,21.75
2022-08-28T20:07:38.637Z,21.68
2022-08-28T20:10:09.857Z,21.58
2022-08-28T20:12:38.687Z,21.52
2022-08-28T20:15:13.292Z,21.46
2022-08-28T20:17:49.331Z,21.38
2022-08-28T20:20:25.608Z,21.37
2022-08-28T20:22:56.560Z,21.36
2022-08-28T20:25:25.543Z,21.36
2022-08-28T20:27:55.672Z,21.31
2022-08-28T20:30:26.916Z,21.28
2022-08-28T20:32:55.554Z,21.23
2022-08-28T20:35:27.607Z,21.14
2022-08-28T20:37:56.325Z,21.06
2022-08-28T20:40:25.370Z,21.05
2022-08-28T20:42:54.834Z,20.99
2022-08-28T20:45:23.743Z,20.98
2022-08-28T20:47:52.289Z,20.90
2022-08-28T20:50:21.378Z,20.86
2022-08-28T20:52:51.265Z,20.83
2022-08-28T20:55:20.593Z,20.77
2022-08-28T20:57:49.154Z,20.66
2022-08-28T21:00:18.499Z,20.66
2022-08-28T21:05:30.511Z,20.57
2022-08-28T21:08:00.352Z,20.52
2022-08-28T21:10:28.905Z,20.48
2022-08-28T21:12:57.421Z,20.49
2022-08-28T21:15:25.985Z,20.29
2022-08-28T21:17:54.486Z,20.17
2022-08-28T21:20:23.368Z,20.19
2022-08-28T21:22:54.220Z,20.17
2022-08-28T21:25:26.703Z,20.04
2022-08-28T21:27:55.220Z,19.82
2022-08-28T21:30:23.996Z,19.84
2022-08-28T21:32:58.073Z,19.81
2022-08-28T21:35:27.137Z,19.83
2022-08-28T21:37:55.659Z,19.72
2022-08-28T21:40:25.627Z,19.66
2022-08-28T21:42:54.207Z,19.65
2022-08-28T21:45:22.956Z,19.66
2022-08-28T21:47:51.457Z,19.52
2022-08-28T21:50:20.746Z,19.52
2022-08-28T21:52:49.815Z,19.49
2022-08-28T21:55:18.530Z,19.49
2022-08-28T21:57:48.476Z,19.49
2022-08-28T22:00:22.671Z,19.46
2022-08-28T22:02:51.939Z,19.42
2022-08-28T22:05:21.417Z,19.37
2022-08-28T22:07:49.937Z,19.37
2022-08-28T22:10:19.010Z,19.28
2022-08-28T22:12:48.908Z,19.22
2022-08-28T22:15:17.604Z,19.20
2022-08-28T22:17:46.585Z,19.22
2022-08-28T22:20:15.498Z,19.18
2022-08-28T22:23:01.422Z,19.15
2022-08-28T22:25:30.006Z,19.11
2022-08-28T22:28:00.288Z,19.08
2022-08-28T22:30:28.900Z,19.02
2022-08-28T22:32:57.464Z,18.95
2022-08-28T22:35:26.463Z,18.89
2022-08-28T22:37:55.346Z,18.78
2022-08-28T22:40:25.538Z,18.81
2022-08-28T22:42:54.319Z,18.73
2022-08-28T22:45:25.663Z,18.60
2022-08-28T22:47:54.681Z,18.50
2022-08-28T22:50:24.222Z,18.45
2022-08-28T22:52:52.897Z,18.44
2022-08-28T22:55:22.608Z,18.44
2022-08-28T22:57:51.481Z,18.42
2022-08-28T23:00:26.567Z,18.41
2022-08-28T23:02:58.067Z,18.37
2022-08-28T23:05:28.846Z,18.37
2022-08-28T23:07:58.371Z,18.35
2022-08-28T23:10:48.176Z,18.20
2022-08-28T23:13:16.565Z,18.12
2022-08-28T23:15:48.728Z,18.15
2022-08-28T23:18:18.330Z,18.04
2022-08-28T23:20:46.902Z,17.95
2022-08-28T23:23:19.315Z,17.96
2022-08-28T23:25:49.324Z,17.95
2022-08-28T23:28:18.955Z,17.97
2022-08-28T23:30:49.715Z,17.90
2022-08-28T23:33:23.526Z,17.92
2022-08-28T23:35:52.700Z,17.83
2022-08-28T23:38:21.594Z,17.75
2022-08-28T23:40:50.784Z,17.81
2022-08-28T23:43:19.337Z,17.84
2022-08-28T23:45:50.789Z,17.82
2022-08-28T23:48:19.810Z,17.83
2022-08-28T23:50:49.002Z,17.79
2022-08-28T23:53:17.676Z,17.75
2022-08-28T23:55:46.447Z,17.74
2022-08-28T23:58:17.428Z,17.76
